sensor_id;sensor_type;location;lat;lon;timestamp;temperature;humidity
63277;DHT22;49403;51.046;13.780;2023-05-31T00:00:27;17.60;47.80
63277;DHT22;49403;51.046;13.780;2023-05-31T00:00:59;17.60;47.90
63277;DHT22;49403;51.046;13.780;2023-05-31T00:01:30;17.60;47.90
63277;DHT22;49403;51.046;13.780;2023-05-31T00:02:02;17.60;47.90
63277;DHT22;49403;51.046;13.780;2023-05-31T00:02:34;17.50;47.80
63277;DHT22;49403;51.046;13.780;2023-05-31T00:03:14;17.60;47.90
63277;DHT22;49403;51.046;13.780;2023-05-31T00:03:45;17.60;47.80
63277;DHT22;49403;51.046;13.780;2023-05-31T00:04:16;17.60;47.80
63277;DHT22;49403;51.046;13.780;2023-05-31T00:04:48;17.60;47.90
63277;DHT22;49403;51.046;13.780;2023-05-31T00:05:20;17.50;47.80
63277;DHT22;49403;51.046;13.780;2023-05-31T00:05:51;17.60;47.80
63277;DHT22;49403;51.046;13.780;2023-05-31T00:06:22;17.60;47.90
63277;DHT22;49403;51.046;13.780;2023-05-31T00:06:53;17.60;48.00
63277;DHT22;49403;51.046;13.780;2023-05-31T00:07:25;17.60;47.90
63277;DHT22;49403;51.046;13.780;2023-05-31T00:07:56;17.40;47.80
63277;DHT22;49403;51.046;13.780;2023-05-31T00:08:27;17.50;48.00
63277;DHT22;49403;51.046;13.780;2023-05-31T00:08:58;17.50;48.00
63277;DHT22;49403;51.046;13.780;2023-05-31T00:09:30;17.50;48.00
63277;DHT22;49403;51.046;13.780;2023-05-31T00:10:01;17.60;48.00
63277;DHT22;49403;51.046;13.780;2023-05-31T00:10:32;17.50;47.90
63277;DHT22;49403;51.046;13.780;2023-05-31T00:11:04;17.50;48.00
63277;DHT22;49403;51.046;13.780;2023-05-31T00:11:43;17.50;48.10
63277;DHT22;49403;51.046;13.780;2023-05-31T00:12:20;17.50;48.10
63277;DHT22;49403;51.046;13.780;2023-05-31T00:12:52;17.40;48.10
63277;DHT22;49403;51.046;13.780;2023-05-31T00:13:23;17.40;48.20
63277;DHT22;49403;51.046;13.780;2023-05-31T00:13:57;17.40;48.30
63277;DHT22;49403;51.046;13.780;2023-05-31T00:14:28;17.40;48.30
63277;DHT22;49403;51.046;13.780;2023-05-31T00:15:00;17.30;48.30
63277;DHT22;49403;51.046;13.780;2023-05-31T00:15:31;17.30;48.40
63277;DHT22;49403;51.046;13.780;2023-05-31T00:16:02;17.30;48.50
63277;DHT22;49403;51.046;13.780;2023-05-31T00:16:34;17.30;48.70
63277;DHT22;49403;51.046;13.780;2023-05-31T00:17:05;17.20;48.70
63277;DHT22;49403;51.046;13.780;2023-05-31T00:17:37;17.20;48.80
63277;DHT22;49403;51.046;13.780;2023-05-31T00:18:08;17.10;48.90
63277;DHT22;49403;51.046;13.780;2023-05-31T00:18:39;17.10;48.90
63277;DHT22;49403;51.046;13.780;2023-05-31T00:19:10;17.10;49.00
63277;DHT22;49403;51.046;13.780;2023-05-31T00:19:41;17.10;49.00
63277;DHT22;49403;51.046;13.780;2023-05-31T00:20:13;17.10;49.00
63277;DHT22;49403;51.046;13.780;2023-05-31T00:20:45;17.10;49.00
63277;DHT22;49403;51.046;13.780;2023-05-31T00:21:19;17.10;49.10
63277;DHT22;49403;51.046;13.780;2023-05-31T00:21:50;17.00;49.10
63277;DHT22;49403;51.046;13.780;2023-05-31T00:22:22;17.00;49.80
63277;DHT22;49403;51.046;13.780;2023-05-31T00:22:53;17.10;49.30
63277;DHT22;49403;51.046;13.780;2023-05-31T00:23:24;17.00;49.40
63277;DHT22;49403;51.046;13.780;2023-05-31T00:23:55;17.00;49.40
63277;DHT22;49403;51.046;13.780;2023-05-31T00:24:27;17.00;49.40
63277;DHT22;49403;51.046;13.780;2023-05-31T00:24:58;17.00;49.40
63277;DHT22;49403;51.046;13.780;2023-05-31T00:25:29;17.00;49.50
63277;DHT22;49403;51.046;13.780;2023-05-31T00:26:01;17.00;49.50
63277;DHT22;49403;51.046;13.780;2023-05-31T00:26:32;16.90;49.40
63277;DHT22;49403;51.046;13.780;2023-05-31T00:27:03;16.90;49.40
63277;DHT22;49403;51.046;13.780;2023-05-31T00:27:35;16.80;49.40
63277;DHT22;49403;51.046;13.780;2023-05-31T00:28:07;16.70;49.40
63277;DHT22;49403;51.046;13.780;2023-05-31T00:28:38;16.80;49.70
63277;DHT22;49403;51.046;13.780;2023-05-31T00:29:09;16.80;49.70
63277;DHT22;49403;51.046;13.780;2023-05-31T00:29:43;16.80;49.80
63277;DHT22;49403;51.046;13.780;2023-05-31T00:30:14;16.70;49.80
63277;DHT22;49403;51.046;13.780;2023-05-31T00:30:49;16.70;49.90
63277;DHT22;49403;51.046;13.780;2023-05-31T00:31:27;16.60;49.90
63277;DHT22;49403;51.046;13.780;2023-05-31T00:32:08;16.60;49.90
63277;DHT22;49403;51.046;13.780;2023-05-31T00:32:42;16.60;50.00
63277;DHT22;49403;51.046;13.780;2023-05-31T00:33:26;16.60;50.10
63277;DHT22;49403;51.046;13.780;2023-05-31T00:34:03;16.70;50.20
63277;DHT22;49403;51.046;13.780;2023-05-31T00:34:41;16.70;50.30
63277;DHT22;49403;51.046;13.780;2023-05-31T00:35:21;16.60;50.20
63277;DHT22;49403;51.046;13.780;2023-05-31T00:36:07;16.60;50.20
63277;DHT22;49403;51.046;13.780;2023-05-31T00:36:42;16.70;50.40
63277;DHT22;49403;51.046;13.780;2023-05-31T00:37:13;17.40;50.90
63277;DHT22;49403;51.046;13.780;2023-05-31T00:37:48;16.70;50.30
63277;DHT22;49403;51.046;13.780;2023-05-31T00:38:39;16.70;50.20
63277;DHT22;49403;51.046;13.780;2023-05-31T00:39:23;16.70;50.10
63277;DHT22;49403;51.046;13.780;2023-05-31T00:39:55;16.70;50.10
63277;DHT22;49403;51.046;13.780;2023-05-31T00:40:26;16.70;50.40
63277;DHT22;49403;51.046;13.780;2023-05-31T00:40:57;16.60;50.40
63277;DHT22;49403;51.046;13.780;2023-05-31T00:41:29;16.60;50.30
63277;DHT22;49403;51.046;13.780;2023-05-31T00:42:00;16.60;50.50
63277;DHT22;49403;51.046;13.780;2023-05-31T00:42:32;16.60;50.40
63277;DHT22;49403;51.046;13.780;2023-05-31T00:43:03;16.60;50.30
63277;DHT22;49403;51.046;13.780;2023-05-31T00:43:38;16.60;50.40
63277;DHT22;49403;51.046;13.780;2023-05-31T00:44:09;16.60;50.40
63277;DHT22;49403;51.046;13.780;2023-05-31T00:44:41;16.60;50.60
63277;DHT22;49403;51.046;13.780;2023-05-31T00:45:12;16.70;50.60
63277;DHT22;49403;51.046;13.780;2023-05-31T00:45:44;16.60;50.50
63277;DHT22;49403;51.046;13.780;2023-05-31T00:46:35;16.60;50.50
63277;DHT22;49403;51.046;13.780;2023-05-31T00:47:09;16.60;50.60
63277;DHT22;49403;51.046;13.780;2023-05-31T00:47:42;16.60;50.70
63277;DHT22;49403;51.046;13.780;2023-05-31T00:48:13;16.50;50.60
63277;DHT22;49403;51.046;13.780;2023-05-31T00:48:44;16.50;50.70
63277;DHT22;49403;51.046;13.780;2023-05-31T00:49:16;16.50;50.80
63277;DHT22;49403;51.046;13.780;2023-05-31T00:49:48;16.40;50.80
63277;DHT22;49403;51.046;13.780;2023-05-31T00:50:22;16.50;51.00
63277;DHT22;49403;51.046;13.780;2023-05-31T00:50:57;16.50;51.10
63277;DHT22;49403;51.046;13.780;2023-05-31T00:51:31;16.40;51.10
63277;DHT22;49403;51.046;13.780;2023-05-31T00:52:03;16.40;51.20
63277;DHT22;49403;51.046;13.780;2023-05-31T00:52:35;16.30;51.20
63277;DHT22;49403;51.046;13.780;2023-05-31T00:53:07;15.80;50.90
63277;DHT22;49403;51.046;13.780;2023-05-31T00:53:40;16.90;51.90
63277;DHT22;49403;51.046;13.780;2023-05-31T00:54:15;16.30;51.40
63277;DHT22;49403;51.046;13.780;2023-05-31T00:54:49;16.30;51.50
63277;DHT22;49403;51.046;13.780;2023-05-31T00:55:21;16.20;51.50
63277;DHT22;49403;51.046;13.780;2023-05-31T00:55:53;16.20;51.60
63277;DHT22;49403;51.046;13.780;2023-05-31T00:56:25;16.20;51.70
63277;DHT22;49403;51.046;13.780;2023-05-31T00:56:57;16.20;51.70
63277;DHT22;49403;51.046;13.780;2023-05-31T00:57:31;16.30;51.90
63277;DHT22;49403;51.046;13.780;2023-05-31T00:58:08;16.20;51.80
63277;DHT22;49403;51.046;13.780;2023-05-31T00:58:44;16.20;51.80
63277;DHT22;49403;51.046;13.780;2023-05-31T00:59:21;16.20;52.30
63277;DHT22;49403;51.046;13.780;2023-05-31T00:59:53;16.20;51.90
63277;DHT22;49403;51.046;13.780;2023-05-31T01:00:24;16.20;51.90
63277;DHT22;49403;51.046;13.780;2023-05-31T01:00:56;16.20;52.00
63277;DHT22;49403;51.046;13.780;2023-05-31T01:01:31;16.20;51.90
63277;DHT22;49403;51.046;13.780;2023-05-31T01:02:06;16.30;52.00
63277;DHT22;49403;51.046;13.780;2023-05-31T01:02:40;16.30;52.00
63277;DHT22;49403;51.046;13.780;2023-05-31T01:03:12;16.30;52.00
63277;DHT22;49403;51.046;13.780;2023-05-31T01:03:47;16.30;51.90
63277;DHT22;49403;51.046;13.780;2023-05-31T01:04:19;16.30;52.00
63277;DHT22;49403;51.046;13.780;2023-05-31T01:04:54;16.30;52.00
63277;DHT22;49403;51.046;13.780;2023-05-31T01:05:26;16.30;52.00
63277;DHT22;49403;51.046;13.780;2023-05-31T01:06:02;16.30;52.00
63277;DHT22;49403;51.046;13.780;2023-05-31T01:06:38;16.30;52.00
63277;DHT22;49403;51.046;13.780;2023-05-31T01:07:09;16.30;51.90
63277;DHT22;49403;51.046;13.780;2023-05-31T01:07:41;16.20;51.80
63277;DHT22;49403;51.046;13.780;2023-05-31T01:08:15;16.00;51.70
63277;DHT22;49403;51.046;13.780;2023-05-31T01:08:47;16.40;52.00
63277;DHT22;49403;51.046;13.780;2023-05-31T01:09:22;16.40;52.10
63277;DHT22;49403;51.046;13.780;2023-05-31T01:09:54;16.40;52.00
63277;DHT22;49403;51.046;13.780;2023-05-31T01:10:29;16.40;51.80
63277;DHT22;49403;51.046;13.780;2023-05-31T01:12:20;16.40;51.70
63277;DHT22;49403;51.046;13.780;2023-05-31T01:13:59;16.30;51.70
63277;DHT22;49403;51.046;13.780;2023-05-31T01:15:48;16.20;51.70
63277;DHT22;49403;51.046;13.780;2023-05-31T01:16:34;16.20;51.90
63277;DHT22;49403;51.046;13.780;2023-05-31T01:18:31;16.20;52.20
63277;DHT22;49403;51.046;13.780;2023-05-31T01:19:20;16.10;52.10
63277;DHT22;49403;51.046;13.780;2023-05-31T01:20:10;16.00;52.20
63277;DHT22;49403;51.046;13.780;2023-05-31T01:20:48;16.10;52.40
63277;DHT22;49403;51.046;13.780;2023-05-31T01:21:32;16.00;52.40
63277;DHT22;49403;51.046;13.780;2023-05-31T01:22:33;15.80;52.30
63277;DHT22;49403;51.046;13.780;2023-05-31T01:24:30;16.00;52.50
63277;DHT22;49403;51.046;13.780;2023-05-31T01:25:16;16.00;52.70
63277;DHT22;49403;51.046;13.780;2023-05-31T01:26:51;16.00;52.60
63277;DHT22;49403;51.046;13.780;2023-05-31T01:27:26;16.00;52.80
63277;DHT22;49403;51.046;13.780;2023-05-31T01:28:00;16.10;52.90
63277;DHT22;49403;51.046;13.780;2023-05-31T01:28:47;15.90;52.60
63277;DHT22;49403;51.046;13.780;2023-05-31T01:29:22;15.90;52.60
63277;DHT22;49403;51.046;13.780;2023-05-31T01:29:55;15.90;52.60
63277;DHT22;49403;51.046;13.780;2023-05-31T01:30:30;15.80;52.50
63277;DHT22;49403;51.046;13.780;2023-05-31T01:31:08;15.90;52.70
63277;DHT22;49403;51.046;13.780;2023-05-31T01:31:45;15.80;52.70
63277;DHT22;49403;51.046;13.780;2023-05-31T01:32:23;15.80;52.70
63277;DHT22;49403;51.046;13.780;2023-05-31T01:32:59;15.70;52.70
63277;DHT22;49403;51.046;13.780;2023-05-31T01:33:35;15.70;52.80
63277;DHT22;49403;51.046;13.780;2023-05-31T01:34:16;15.60;52.80
63277;DHT22;49403;51.046;13.780;2023-05-31T01:34:48;15.60;52.90
63277;DHT22;49403;51.046;13.780;2023-05-31T01:35:22;15.60;52.90
63277;DHT22;49403;51.046;13.780;2023-05-31T01:35:59;15.60;52.90
63277;DHT22;49403;51.046;13.780;2023-05-31T01:36:34;15.60;52.90
63277;DHT22;49403;51.046;13.780;2023-05-31T01:37:06;15.60;52.90
63277;DHT22;49403;51.046;13.780;2023-05-31T01:37:41;15.60;52.90
63277;DHT22;49403;51.046;13.780;2023-05-31T01:38:15;15.60;52.80
63277;DHT22;49403;51.046;13.780;2023-05-31T01:38:52;15.60;52.80
63277;DHT22;49403;51.046;13.780;2023-05-31T01:39:24;15.70;52.80
63277;DHT22;49403;51.046;13.780;2023-05-31T01:39:59;15.70;52.80
63277;DHT22;49403;51.046;13.780;2023-05-31T01:40:31;15.70;52.80
63277;DHT22;49403;51.046;13.780;2023-05-31T01:41:07;15.70;52.80
63277;DHT22;49403;51.046;13.780;2023-05-31T01:41:40;15.70;52.80
63277;DHT22;49403;51.046;13.780;2023-05-31T01:42:13;15.70;52.70
63277;DHT22;49403;51.046;13.780;2023-05-31T01:42:49;15.70;52.70
63277;DHT22;49403;51.046;13.780;2023-05-31T01:43:22;15.70;52.60
63277;DHT22;49403;51.046;13.780;2023-05-31T01:43:57;15.70;52.60
63277;DHT22;49403;51.046;13.780;2023-05-31T01:44:30;15.70;52.70
63277;DHT22;49403;51.046;13.780;2023-05-31T01:45:03;15.60;52.70
63277;DHT22;49403;51.046;13.780;2023-05-31T01:45:37;15.80;52.90
63277;DHT22;49403;51.046;13.780;2023-05-31T01:46:13;15.70;52.80
63277;DHT22;49403;51.046;13.780;2023-05-31T01:46:49;15.70;52.70
63277;DHT22;49403;51.046;13.780;2023-05-31T01:47:23;15.60;52.70
63277;DHT22;49403;51.046;13.780;2023-05-31T01:48:08;15.70;52.70
63277;DHT22;49403;51.046;13.780;2023-05-31T01:48:46;15.50;52.60
63277;DHT22;49403;51.046;13.780;2023-05-31T01:49:19;15.60;52.60
63277;DHT22;49403;51.046;13.780;2023-05-31T01:49:51;15.60;52.70
63277;DHT22;49403;51.046;13.780;2023-05-31T01:50:37;15.60;52.80
63277;DHT22;49403;51.046;13.780;2023-05-31T01:51:14;14.60;52.00
63277;DHT22;49403;51.046;13.780;2023-05-31T01:51:46;15.50;53.00
63277;DHT22;49403;51.046;13.780;2023-05-31T01:52:23;15.50;53.10
63277;DHT22;49403;51.046;13.780;2023-05-31T01:52:54;15.40;53.20
63277;DHT22;49403;51.046;13.780;2023-05-31T01:53:26;15.40;53.30
63277;DHT22;49403;51.046;13.780;2023-05-31T01:54:00;15.40;53.40
63277;DHT22;49403;51.046;13.780;2023-05-31T01:54:35;15.40;53.60
63277;DHT22;49403;51.046;13.780;2023-05-31T01:55:09;15.30;53.60
63277;DHT22;49403;51.046;13.780;2023-05-31T01:55:44;15.30;53.80
63277;DHT22;49403;51.046;13.780;2023-05-31T01:56:19;15.30;53.90
63277;DHT22;49403;51.046;13.780;2023-05-31T01:56:54;15.30;54.00
63277;DHT22;49403;51.046;13.780;2023-05-31T01:57:30;15.20;54.00
63277;DHT22;49403;51.046;13.780;2023-05-31T01:58:05;15.20;54.10
63277;DHT22;49403;51.046;13.780;2023-05-31T01:58:40;16.50;55.30
63277;DHT22;49403;51.046;13.780;2023-05-31T01:59:13;15.20;54.30
63277;DHT22;49403;51.046;13.780;2023-05-31T01:59:49;15.20;54.40
63277;DHT22;49403;51.046;13.780;2023-05-31T02:00:25;15.20;54.40
63277;DHT22;49403;51.046;13.780;2023-05-31T02:01:03;15.20;54.50
63277;DHT22;49403;51.046;13.780;2023-05-31T02:01:36;15.10;54.60
63277;DHT22;49403;51.046;13.780;2023-05-31T02:02:11;15.10;54.70
63277;DHT22;49403;51.046;13.780;2023-05-31T02:02:45;15.10;54.80
63277;DHT22;49403;51.046;13.780;2023-05-31T02:03:20;15.10;54.90
63277;DHT22;49403;51.046;13.780;2023-05-31T02:03:52;15.10;55.00
63277;DHT22;49403;51.046;13.780;2023-05-31T02:04:23;15.10;55.10
63277;DHT22;49403;51.046;13.780;2023-05-31T02:05:11;15.00;55.10
63277;DHT22;49403;51.046;13.780;2023-05-31T02:06:02;15.00;55.20
63277;DHT22;49403;51.046;13.780;2023-05-31T02:06:39;15.00;55.20
63277;DHT22;49403;51.046;13.780;2023-05-31T02:07:13;15.00;55.40
63277;DHT22;49403;51.046;13.780;2023-05-31T02:07:54;15.00;55.40
63277;DHT22;49403;51.046;13.780;2023-05-31T02:08:28;15.70;56.10
63277;DHT22;49403;51.046;13.780;2023-05-31T02:09:06;15.00;55.50
63277;DHT22;49403;51.046;13.780;2023-05-31T02:09:40;15.00;55.60
63277;DHT22;49403;51.046;13.780;2023-05-31T02:10:17;15.10;55.70
63277;DHT22;49403;51.046;13.780;2023-05-31T02:10:55;15.00;55.60
63277;DHT22;49403;51.046;13.780;2023-05-31T02:11:34;15.00;55.70
63277;DHT22;49403;51.046;13.780;2023-05-31T02:12:12;15.00;55.80
63277;DHT22;49403;51.046;13.780;2023-05-31T02:12:43;15.00;55.80
63277;DHT22;49403;51.046;13.780;2023-05-31T02:13:24;15.10;55.80
63277;DHT22;49403;51.046;13.780;2023-05-31T02:13:59;15.00;55.70
63277;DHT22;49403;51.046;13.780;2023-05-31T02:14:33;15.10;55.80
63277;DHT22;49403;51.046;13.780;2023-05-31T02:15:08;15.10;55.80
63277;DHT22;49403;51.046;13.780;2023-05-31T02:15:43;15.10;55.80
63277;DHT22;49403;51.046;13.780;2023-05-31T02:16:14;15.10;55.80
63277;DHT22;49403;51.046;13.780;2023-05-31T02:16:50;15.10;55.70
63277;DHT22;49403;51.046;13.780;2023-05-31T02:17:27;15.10;55.70
63277;DHT22;49403;51.046;13.780;2023-05-31T02:18:04;15.10;55.70
63277;DHT22;49403;51.046;13.780;2023-05-31T02:18:38;15.20;55.80
63277;DHT22;49403;51.046;13.780;2023-05-31T02:19:13;15.20;55.80
63277;DHT22;49403;51.046;13.780;2023-05-31T02:19:55;15.20;55.80
63277;DHT22;49403;51.046;13.780;2023-05-31T02:20:26;15.20;55.80
63277;DHT22;49403;51.046;13.780;2023-05-31T02:21:03;15.20;55.70
63277;DHT22;49403;51.046;13.780;2023-05-31T02:21:39;15.20;55.70
63277;DHT22;49403;51.046;13.780;2023-05-31T02:22:11;15.20;55.80
63277;DHT22;49403;51.046;13.780;2023-05-31T02:22:46;15.20;55.70
63277;DHT22;49403;51.046;13.780;2023-05-31T02:23:20;15.20;55.70
63277;DHT22;49403;51.046;13.780;2023-05-31T02:23:54;15.20;55.70
63277;DHT22;49403;51.046;13.780;2023-05-31T02:24:29;15.20;55.70
63277;DHT22;49403;51.046;13.780;2023-05-31T02:25:06;15.20;55.60
63277;DHT22;49403;51.046;13.780;2023-05-31T02:25:38;15.20;55.70
63277;DHT22;49403;51.046;13.780;2023-05-31T02:26:10;15.20;55.60
63277;DHT22;49403;51.046;13.780;2023-05-31T02:26:45;15.20;55.60
63277;DHT22;49403;51.046;13.780;2023-05-31T02:27:16;15.20;55.60
63277;DHT22;49403;51.046;13.780;2023-05-31T02:27:53;15.20;55.60
63277;DHT22;49403;51.046;13.780;2023-05-31T02:28:28;15.20;55.60
63277;DHT22;49403;51.046;13.780;2023-05-31T02:29:02;15.20;55.60
63277;DHT22;49403;51.046;13.780;2023-05-31T02:29:39;15.20;55.70
63277;DHT22;49403;51.046;13.780;2023-05-31T02:30:14;15.20;55.70
63277;DHT22;49403;51.046;13.780;2023-05-31T02:30:59;15.20;55.70
63277;DHT22;49403;51.046;13.780;2023-05-31T02:31:36;16.40;56.80
63277;DHT22;49403;51.046;13.780;2023-05-31T02:32:11;15.20;55.90
63277;DHT22;49403;51.046;13.780;2023-05-31T02:32:46;15.20;56.00
63277;DHT22;49403;51.046;13.780;2023-05-31T02:33:20;15.20;56.00
63277;DHT22;49403;51.046;13.780;2023-05-31T02:33:54;15.20;56.10
63277;DHT22;49403;51.046;13.780;2023-05-31T02:34:27;15.10;56.00
63277;DHT22;49403;51.046;13.780;2023-05-31T02:35:05;15.10;56.10
63277;DHT22;49403;51.046;13.780;2023-05-31T02:35:39;15.10;56.10
63277;DHT22;49403;51.046;13.780;2023-05-31T02:36:13;15.10;56.20
63277;DHT22;49403;51.046;13.780;2023-05-31T02:36:45;15.20;56.40
63277;DHT22;49403;51.046;13.780;2023-05-31T02:37:19;16.00;57.10
63277;DHT22;49403;51.046;13.780;2023-05-31T02:37:54;15.10;56.40
63277;DHT22;49403;51.046;13.780;2023-05-31T02:38:29;15.10;56.30
63277;DHT22;49403;51.046;13.780;2023-05-31T02:39:03;15.10;56.40
63277;DHT22;49403;51.046;13.780;2023-05-31T02:39:38;15.00;56.30
63277;DHT22;49403;51.046;13.780;2023-05-31T02:40:12;14.80;56.20
63277;DHT22;49403;51.046;13.780;2023-05-31T02:40:47;16.20;57.40
63277;DHT22;49403;51.046;13.780;2023-05-31T02:41:22;15.20;56.60
63277;DHT22;49403;51.046;13.780;2023-05-31T02:42:01;15.10;56.50
63277;DHT22;49403;51.046;13.780;2023-05-31T02:42:35;15.10;56.50
63277;DHT22;49403;51.046;13.780;2023-05-31T02:43:09;15.10;56.50
63277;DHT22;49403;51.046;13.780;2023-05-31T02:43:41;15.10;56.40
63277;DHT22;49403;51.046;13.780;2023-05-31T02:44:18;15.10;56.50
63277;DHT22;49403;51.046;13.780;2023-05-31T02:44:56;15.10;56.50
63277;DHT22;49403;51.046;13.780;2023-05-31T02:45:27;15.10;56.50
63277;DHT22;49403;51.046;13.780;2023-05-31T02:46:04;15.10;56.50
63277;DHT22;49403;51.046;13.780;2023-05-31T02:46:41;16.00;57.30
63277;DHT22;49403;51.046;13.780;2023-05-31T02:47:16;14.90;56.30
63277;DHT22;49403;51.046;13.780;2023-05-31T02:47:54;15.10;56.60
63277;DHT22;49403;51.046;13.780;2023-05-31T02:48:28;15.10;56.60
63277;DHT22;49403;51.046;13.780;2023-05-31T02:49:05;15.10;56.70
63277;DHT22;49403;51.046;13.780;2023-05-31T02:49:44;15.40;56.90
63277;DHT22;49403;51.046;13.780;2023-05-31T02:50:22;15.10;56.60
63277;DHT22;49403;51.046;13.780;2023-05-31T02:50:56;15.10;56.70
63277;DHT22;49403;51.046;13.780;2023-05-31T02:51:33;15.10;56.70
63277;DHT22;49403;51.046;13.780;2023-05-31T02:52:07;15.10;56.70
63277;DHT22;49403;51.046;13.780;2023-05-31T02:52:42;15.10;56.80
63277;DHT22;49403;51.046;13.780;2023-05-31T02:53:16;15.10;56.80
63277;DHT22;49403;51.046;13.780;2023-05-31T02:53:50;15.10;56.80
63277;DHT22;49403;51.046;13.780;2023-05-31T02:54:28;15.10;56.90
63277;DHT22;49403;51.046;13.780;2023-05-31T02:55:03;15.10;56.90
63277;DHT22;49403;51.046;13.780;2023-05-31T02:55:34;15.20;57.00
63277;DHT22;49403;51.046;13.780;2023-05-31T02:56:10;15.10;56.90
63277;DHT22;49403;51.046;13.780;2023-05-31T02:56:45;15.00;56.90
63277;DHT22;49403;51.046;13.780;2023-05-31T02:57:23;16.40;58.10
63277;DHT22;49403;51.046;13.780;2023-05-31T02:57:57;15.00;56.90
63277;DHT22;49403;51.046;13.780;2023-05-31T02:58:32;15.00;56.90
63277;DHT22;49403;51.046;13.780;2023-05-31T02:59:09;15.00;56.90
63277;DHT22;49403;51.046;13.780;2023-05-31T02:59:48;15.00;56.90
63277;DHT22;49403;51.046;13.780;2023-05-31T03:00:23;15.00;57.00
63277;DHT22;49403;51.046;13.780;2023-05-31T03:00:57;14.80;56.90
63277;DHT22;49403;51.046;13.780;2023-05-31T03:01:32;14.90;57.10
63277;DHT22;49403;51.046;13.780;2023-05-31T03:02:07;14.90;57.10
63277;DHT22;49403;51.046;13.780;2023-05-31T03:02:42;14.90;57.10
63277;DHT22;49403;51.046;13.780;2023-05-31T03:03:18;14.90;57.10
63277;DHT22;49403;51.046;13.780;2023-05-31T03:03:52;14.80;57.10
63277;DHT22;49403;51.046;13.780;2023-05-31T03:04:25;14.90;57.20
63277;DHT22;49403;51.046;13.780;2023-05-31T03:05:00;14.90;57.20
63277;DHT22;49403;51.046;13.780;2023-05-31T03:05:35;14.90;57.30
63277;DHT22;49403;51.046;13.780;2023-05-31T03:06:07;14.90;57.10
63277;DHT22;49403;51.046;13.780;2023-05-31T03:06:40;14.70;57.10
63277;DHT22;49403;51.046;13.780;2023-05-31T03:07:18;14.80;57.20
63277;DHT22;49403;51.046;13.780;2023-05-31T03:07:50;14.80;57.30
63277;DHT22;49403;51.046;13.780;2023-05-31T03:08:25;14.80;57.40
63277;DHT22;49403;51.046;13.780;2023-05-31T03:09:00;14.80;57.60
63277;DHT22;49403;51.046;13.780;2023-05-31T03:09:35;14.70;57.60
63277;DHT22;49403;51.046;13.780;2023-05-31T03:10:17;14.80;57.60
63277;DHT22;49403;51.046;13.780;2023-05-31T03:10:50;14.80;57.80
63277;DHT22;49403;51.046;13.780;2023-05-31T03:11:25;14.40;57.40
63277;DHT22;49403;51.046;13.780;2023-05-31T03:11:57;14.70;57.70
63277;DHT22;49403;51.046;13.780;2023-05-31T03:12:36;14.70;57.70
63277;DHT22;49403;51.046;13.780;2023-05-31T03:13:09;14.70;57.80
63277;DHT22;49403;51.046;13.780;2023-05-31T03:13:42;14.70;57.80
63277;DHT22;49403;51.046;13.780;2023-05-31T03:14:17;14.70;57.80
63277;DHT22;49403;51.046;13.780;2023-05-31T03:14:52;14.70;57.90
63277;DHT22;49403;51.046;13.780;2023-05-31T03:15:25;14.60;57.80
63277;DHT22;49403;51.046;13.780;2023-05-31T03:15:57;14.70;58.50
63277;DHT22;49403;51.046;13.780;2023-05-31T03:16:29;14.70;58.00
63277;DHT22;49403;51.046;13.780;2023-05-31T03:17:04;14.70;58.00
63277;DHT22;49403;51.046;13.780;2023-05-31T03:17:37;14.70;58.00
63277;DHT22;49403;51.046;13.780;2023-05-31T03:18:15;14.70;57.90
63277;DHT22;49403;51.046;13.780;2023-05-31T03:18:50;14.70;57.80
63277;DHT22;49403;51.046;13.780;2023-05-31T03:19:25;14.70;57.80
63277;DHT22;49403;51.046;13.780;2023-05-31T03:20:06;14.60;57.80
63277;DHT22;49403;51.046;13.780;2023-05-31T03:20:40;14.70;57.80
63277;DHT22;49403;51.046;13.780;2023-05-31T03:21:18;14.70;58.00
63277;DHT22;49403;51.046;13.780;2023-05-31T03:21:54;14.60;57.90
63277;DHT22;49403;51.046;13.780;2023-05-31T03:22:26;14.60;58.00
63277;DHT22;49403;51.046;13.780;2023-05-31T03:22:59;14.60;58.00
63277;DHT22;49403;51.046;13.780;2023-05-31T03:23:31;15.40;58.60
63277;DHT22;49403;51.046;13.780;2023-05-31T03:24:07;14.70;58.00
63277;DHT22;49403;51.046;13.780;2023-05-31T03:24:43;14.70;58.10
63277;DHT22;49403;51.046;13.780;2023-05-31T03:25:15;14.70;58.00
63277;DHT22;49403;51.046;13.780;2023-05-31T03:25:51;14.70;58.00
63277;DHT22;49403;51.046;13.780;2023-05-31T03:26:26;14.70;58.00
63277;DHT22;49403;51.046;13.780;2023-05-31T03:26:59;14.70;57.90
63277;DHT22;49403;51.046;13.780;2023-05-31T03:27:32;14.70;57.80
63277;DHT22;49403;51.046;13.780;2023-05-31T03:28:11;14.80;57.90
63277;DHT22;49403;51.046;13.780;2023-05-31T03:28:47;14.80;57.80
63277;DHT22;49403;51.046;13.780;2023-05-31T03:29:22;14.80;57.80
63277;DHT22;49403;51.046;13.780;2023-05-31T03:29:58;14.80;57.80
63277;DHT22;49403;51.046;13.780;2023-05-31T03:30:33;14.80;57.80
63277;DHT22;49403;51.046;13.780;2023-05-31T03:31:05;14.80;57.80
63277;DHT22;49403;51.046;13.780;2023-05-31T03:31:38;14.80;57.80
63277;DHT22;49403;51.046;13.780;2023-05-31T03:32:10;14.80;57.80
63277;DHT22;49403;51.046;13.780;2023-05-31T03:32:43;14.90;58.00
63277;DHT22;49403;51.046;13.780;2023-05-31T03:33:19;14.80;57.90
63277;DHT22;49403;51.046;13.780;2023-05-31T03:33:52;15.10;58.20
63277;DHT22;49403;51.046;13.780;2023-05-31T03:34:25;14.80;57.90
63277;DHT22;49403;51.046;13.780;2023-05-31T03:35:03;14.80;57.90
63277;DHT22;49403;51.046;13.780;2023-05-31T03:35:38;15.80;58.80
63277;DHT22;49403;51.046;13.780;2023-05-31T03:36:14;14.80;57.90
63277;DHT22;49403;51.046;13.780;2023-05-31T03:36:46;14.80;58.00
63277;DHT22;49403;51.046;13.780;2023-05-31T03:37:24;14.10;57.40
63277;DHT22;49403;51.046;13.780;2023-05-31T03:38:01;14.80;57.90
63277;DHT22;49403;51.046;13.780;2023-05-31T03:38:36;14.80;58.60
63277;DHT22;49403;51.046;13.780;2023-05-31T03:39:08;14.90;58.00
63277;DHT22;49403;51.046;13.780;2023-05-31T03:39:43;14.80;57.90
63277;DHT22;49403;51.046;13.780;2023-05-31T03:40:18;14.80;57.90
63277;DHT22;49403;51.046;13.780;2023-05-31T03:40:50;14.80;57.90
63277;DHT22;49403;51.046;13.780;2023-05-31T03:41:25;15.60;58.70
63277;DHT22;49403;51.046;13.780;2023-05-31T03:42:02;14.80;58.00
63277;DHT22;49403;51.046;13.780;2023-05-31T03:42:40;14.90;58.00
63277;DHT22;49403;51.046;13.780;2023-05-31T03:43:14;14.80;57.80
63277;DHT22;49403;51.046;13.780;2023-05-31T03:43:49;14.80;57.80